Time;durP1;ratioP1;P1;durP2;ratioP2;P2;SDS_P1;SDS_P2;PMS_P1;PMS_P2;Temp;Humidity;BMP_temperature;BMP_pressure;BME280_temperature;BME280_humidity;BME280_pressure;Samples;Min_cycle;Max_cycle;Signal;HPM_P1;HPM_P2
2023/10/29 00:00:54;;;;;;;0.20;0.20;;;;;;;20.00;65.63;99191.84;5053938;28;20041;-66
2023/10/29 00:03:20;;;;;;;0.20;0.20;;;;;;;20.68;62.89;99177.84;5054024;28;20458;-64
2023/10/29 00:05:45;;;;;;;0.10;0.10;;;;;;;19.66;66.13;99170.94;5072397;28;20025;-65
2023/10/29 00:08:11;;;;;;;0.10;0.10;;;;;;;20.12;65.31;99178.31;5072218;28;20442;-65
2023/10/29 00:10:37;;;;;;;0.30;0.30;;;;;;;20.17;64.54;99159.81;5072632;28;20048;-65
2023/10/29 00:13:02;;;;;;;0.10;0.10;;;;;;;20.08;65.61;99159.06;5084987;28;20081;-65
2023/10/29 00:15:28;;;;;;;0.30;0.30;;;;;;;20.44;64.20;99163.25;5076710;28;20044;-64
2023/10/29 00:17:54;;;;;;;0.10;0.10;;;;;;;19.93;65.77;99156.88;5071904;28;20055;-65
2023/10/29 00:20:19;;;;;;;0.20;0.20;;;;;;;20.08;64.61;99172.72;5071973;28;20041;-64
2023/10/29 00:22:44;;;;;;;0.20;0.20;;;;;;;20.43;64.47;99156.16;5072188;28;20028;-65
2023/10/29 00:25:10;;;;;;;0.20;0.20;;;;;;;20.10;65.69;99150.56;5071993;28;20036;-64
2023/10/29 00:27:35;;;;;;;0.10;0.10;;;;;;;20.25;64.82;99141.84;5071868;28;20449;-65
2023/10/29 00:30:01;;;;;;;0.20;0.20;;;;;;;20.19;64.69;99137.69;5071809;28;20033;-65
2023/10/29 00:32:26;;;;;;;0.22;0.22;;;;;;;19.68;66.47;99129.72;5071905;28;20423;-64
2023/10/29 00:34:52;;;;;;;0.10;0.10;;;;;;;20.43;64.76;99129.69;5071863;28;20024;-65
2023/10/29 00:37:17;;;;;;;0.20;0.20;;;;;;;19.98;65.38;99115.00;5072004;28;20028;-66
2023/10/29 00:39:43;;;;;;;0.20;0.20;;;;;;;20.38;64.99;99120.91;5071816;28;20032;-64
2023/10/29 00:42:10;;;;;;;0.20;0.20;;;;;;;20.53;64.31;99118.38;5071654;28;20064;-64
2023/10/29 00:44:36;;;;;;;0.20;0.20;;;;;;;19.99;64.75;99105.69;5071683;28;20046;-64
2023/10/29 00:47:01;;;;;;;0.20;0.20;;;;;;;20.15;65.02;99090.34;5071302;28;20103;-65
2023/10/29 00:49:27;;;;;;;0.20;0.20;;;;;;;19.51;66.93;99089.72;5072010;28;20024;-65
2023/10/29 00:51:52;;;;;;;0.20;0.20;;;;;;;20.35;65.14;99094.25;5071431;28;20036;-65
2023/10/29 00:54:18;;;;;;;0.20;0.20;;;;;;;19.74;67.10;99080.16;5071186;28;20044;-65
2023/10/29 00:56:43;;;;;;;0.15;0.15;;;;;;;20.07;65.72;99099.38;5071256;28;20392;-65
2023/10/29 00:59:11;;;;;;;0.10;0.10;;;;;;;20.55;64.41;99097.03;5070377;28;20028;-66
2023/10/29 01:01:37;;;;;;;0.10;0.10;;;;;;;20.09;65.59;99089.75;5071953;28;20430;-64
2023/10/29 01:04:04;;;;;;;0.25;0.25;;;;;;;20.11;65.42;99083.97;5071735;28;20032;-64
2023/10/29 01:06:31;;;;;;;0.20;0.20;;;;;;;20.05;65.91;99068.91;5071512;28;20021;-65
2023/10/29 01:08:56;;;;;;;0.20;0.20;;;;;;;19.81;66.26;99071.47;5081432;28;20118;-64
2023/10/29 01:11:22;;;;;;;0.20;0.20;;;;;;;20.10;65.49;99061.38;5079584;28;20154;-65
2023/10/29 01:13:47;;;;;;;0.22;0.22;;;;;;;20.34;65.64;99055.28;5071590;28;20024;-64
2023/10/29 01:16:12;;;;;;;0.20;0.20;;;;;;;20.63;63.95;99044.28;5053304;28;20028;-64
2023/10/29 01:18:38;;;;;;;0.30;0.30;;;;;;;20.58;64.34;99052.66;5071287;28;20374;-65
2023/10/29 01:21:03;;;;;;;0.20;0.20;;;;;;;20.85;62.50;99048.59;5070986;28;20049;-64
2023/10/29 01:23:30;;;;;;;0.20;0.20;;;;;;;20.91;62.82;99039.81;5071264;28;20060;-65
2023/10/29 01:25:59;;;;;;;0.10;0.10;;;;;;;21.12;62.00;99030.81;5071611;28;20104;-63
2023/10/29 01:28:25;;;;;;;0.13;0.13;;;;;;;20.21;65.18;99034.50;5071115;28;20024;-63
2023/10/29 01:30:50;;;;;;;0.15;0.15;;;;;;;20.84;62.94;99017.75;5071246;28;20028;-64
2023/10/29 01:33:15;;;;;;;0.20;0.20;;;;;;;20.36;64.36;99001.19;5071249;28;20759;-64
2023/10/29 01:35:41;;;;;;;0.30;0.30;;;;;;;20.91;62.49;99003.56;5071116;28;20471;-65
2023/10/29 01:38:06;;;;;;;0.10;0.10;;;;;;;20.53;63.74;99014.69;5071040;28;20024;-64
2023/10/29 01:40:31;;;;;;;0.30;0.30;;;;;;;20.50;63.93;99012.59;5071028;28;20467;-65
2023/10/29 01:42:57;;;;;;;0.10;0.10;;;;;;;20.65;63.72;98997.53;5052460;28;20097;-65
2023/10/29 01:45:23;;;;;;;0.10;0.10;;;;;;;20.58;62.83;98989.91;5070826;28;20033;-64
2023/10/29 01:47:48;;;;;;;0.20;0.20;;;;;;;20.74;63.17;99001.78;5052330;28;20477;-66
2023/10/29 01:50:15;;;;;;;0.13;0.13;;;;;;;20.35;64.95;98993.31;5070709;28;20115;-65
2023/10/29 01:52:40;;;;;;;0.20;0.20;;;;;;;20.00;66.12;98979.94;5070953;28;20028;-64
2023/10/29 01:55:06;;;;;;;0.20;0.20;;;;;;;19.82;66.38;98989.38;5070853;28;20024;-65
2023/10/29 01:57:36;;;;;;;0.20;0.20;;;;;;;19.98;65.85;98978.66;5070528;28;20105;-64
2023/10/29 02:00:05;;;;;;;0.10;0.10;;;;;;;21.01;62.01;98964.91;5070946;28;20025;-65
2023/10/29 02:02:30;;;;;;;0.20;0.20;;;;;;;20.33;64.03;98977.28;5070354;28;20120;-65
2023/10/29 02:04:56;;;;;;;0.20;0.20;;;;;;;19.97;66.15;98964.22;5077854;28;20019;-65
2023/10/29 02:07:21;;;;;;;0.20;0.20;;;;;;;20.67;63.09;98962.53;5080522;28;20491;-64
2023/10/29 02:09:47;;;;;;;0.40;0.40;;;;;;;20.86;62.22;98960.06;5069720;28;20074;-66
2023/10/29 02:12:14;;;;;;;0.20;0.20;;;;;;;20.82;62.02;98946.28;5069629;28;20063;-65
2023/10/29 02:14:40;;;;;;;0.25;0.25;;;;;;;20.52;62.59;98949.53;5070152;28;20059;-64
2023/10/29 02:17:05;;;;;;;0.20;0.20;;;;;;;20.55;62.79;98949.63;5069715;28;20032;-65
2023/10/29 02:19:31;;;;;;;0.20;0.20;;;;;;;20.30;62.82;98947.16;5070274;28;20028;-63
2023/10/29 02:21:56;;;;;;;0.20;0.20;;;;;;;20.64;61.92;98939.41;5069788;28;20044;-64
2023/10/29 02:24:22;;;;;;;0.20;0.20;;;;;;;20.93;61.46;98922.09;5069803;28;20029;-65
2023/10/29 02:26:47;;;;;;;0.20;0.20;;;;;;;20.76;62.23;98928.53;5070017;28;20032;-64
2023/10/29 02:29:13;;;;;;;0.20;0.20;;;;;;;21.13;59.82;98928.63;5070143;28;20036;-64
2023/10/29 02:31:38;;;;;;;0.10;0.10;;;;;;;20.58;61.82;98935.31;5070355;28;20040;-65
2023/10/29 02:34:04;;;;;;;0.13;0.13;;;;;;;19.63;64.97;98925.53;5069731;28;20056;-64
2023/10/29 02:36:29;;;;;;;0.20;0.20;;;;;;;19.56;65.51;98938.84;5069897;28;20036;-63
2023/10/29 02:38:54;;;;;;;0.22;0.22;;;;;;;20.66;62.98;98939.06;5069870;28;20512;-64
2023/10/29 02:41:20;;;;;;;0.20;0.20;;;;;;;19.68;66.21;98933.50;5069911;28;20078;-64
2023/10/29 02:43:46;;;;;;;0.20;0.20;;;;;;;20.08;64.82;98927.25;5070368;28;20024;-66
2023/10/29 02:46:11;;;;;;;0.22;0.22;;;;;;;19.83;64.75;98933.69;5069664;28;20020;-64
2023/10/29 02:48:37;;;;;;;0.20;0.20;;;;;;;19.97;64.92;98919.78;5069533;28;20095;-64
2023/10/29 02:51:02;;;;;;;0.20;0.20;;;;;;;19.65;65.81;98928.72;5069594;28;20037;-65
2023/10/29 02:53:30;;;;;;;0.10;0.10;;;;;;;20.32;64.47;98925.78;5069743;28;20481;-65
2023/10/29 02:56:01;;;;;;;0.20;0.20;;;;;;;20.17;65.23;98925.25;5069581;28;20020;-64
2023/10/29 02:58:27;;;;;;;0.28;0.28;;;;;;;20.62;63.72;98908.13;5069942;28;20100;-64
2023/10/29 03:00:52;;;;;;;0.20;0.20;;;;;;;19.75;66.27;98923.66;5074850;28;20098;-64
2023/10/29 03:03:18;;;;;;;0.10;0.10;;;;;;;19.83;65.42;98924.75;5082084;28;20032;-64
2023/10/29 03:05:43;;;;;;;0.20;0.20;;;;;;;20.47;63.39;98915.03;5069414;28;20036;-63
2023/10/29 03:08:08;;;;;;;0.10;0.10;;;;;;;19.70;67.05;98904.78;5069420;28;20020;-64
2023/10/29 03:10:34;;;;;;;0.10;0.10;;;;;;;20.41;63.38;98900.03;5070280;28;20484;-64
2023/10/29 03:12:59;;;;;;;0.30;0.30;;;;;;;20.69;62.63;98900.19;5069456;28;20044;-64
2023/10/29 03:15:26;;;;;;;0.10;0.10;;;;;;;20.47;62.29;98895.13;5034202;28;20480;-64
2023/10/29 03:17:51;;;;;;;0.20;0.20;;;;;;;20.74;61.32;98900.78;5051277;28;20047;-65
2023/10/29 03:20:17;;;;;;;0.30;0.30;;;;;;;20.32;63.64;98910.22;5069099;28;20045;-64
2023/10/29 03:22:42;;;;;;;0.20;0.20;;;;;;;19.90;64.67;98906.72;5072263;28;20078;-64
2023/10/29 03:25:08;;;;;;;0.28;0.28;;;;;;;20.58;61.98;98915.44;5072913;28;20025;-64
2023/10/29 03:27:34;;;;;;;0.20;0.20;;;;;;;19.91;65.32;98921.94;5072887;28;20119;-64
2023/10/29 03:30:00;;;;;;;0.10;0.10;;;;;;;20.39;62.58;98928.75;5072965;28;20041;-65
2023/10/29 03:32:25;;;;;;;0.20;0.20;;;;;;;20.52;62.83;98930.41;5072316;28;20047;-64
2023/10/29 03:34:51;;;;;;;0.20;0.20;;;;;;;20.36;63.67;98938.44;5071941;28;20408;-66
2023/10/29 03:37:16;;;;;;;0.10;0.10;;;;;;;20.38;63.16;98938.09;5072234;28;20025;-64
2023/10/29 03:39:41;;;;;;;0.20;0.20;;;;;;;19.95;64.31;98933.00;5071611;28;20189;-64
2023/10/29 03:42:07;;;;;;;0.10;0.10;;;;;;;20.13;64.65;98937.16;5071573;28;20039;-66
2023/10/29 03:44:32;;;;;;;0.20;0.20;;;;;;;20.12;64.96;98927.38;5071858;28;20432;-66
2023/10/29 03:46:58;;;;;;;0.10;0.10;;;;;;;20.13;63.66;98920.78;5053157;28;20515;-64
2023/10/29 03:49:24;;;;;;;0.10;0.10;;;;;;;20.55;62.15;98929.72;5053503;28;20051;-64
2023/10/29 03:51:49;;;;;;;0.25;0.25;;;;;;;19.65;65.56;98932.25;5071579;28;20032;-64
2023/10/29 03:54:15;;;;;;;0.20;0.20;;;;;;;20.54;63.08;98941.78;5071491;28;20048;-66
2023/10/29 03:56:40;;;;;;;0.20;0.20;;;;;;;20.40;62.81;98933.09;5072924;28;20036;-64
2023/10/29 03:59:06;;;;;;;0.20;0.20;;;;;;;20.13;63.68;98937.16;5077442;28;20025;-65
2023/10/29 04:01:32;;;;;;;0.20;0.20;;;;;;;19.72;65.81;98945.31;5068676;28;20025;-65
2023/10/29 04:03:58;;;;;;;0.20;0.20;;;;;;;20.14;64.64;98945.03;5057937;28;20048;-63
2023/10/29 04:06:23;;;;;;;0.30;0.30;;;;;;;19.81;65.75;98940.63;5066055;28;20500;-65
2023/10/29 04:08:49;;;;;;;0.10;0.10;;;;;;;20.43;62.78;98932.41;5071017;28;20029;-64
2023/10/29 04:11:14;;;;;;;0.20;0.20;;;;;;;20.34;62.41;98945.34;5054320;28;20583;-64
2023/10/29 04:13:40;;;;;;;0.13;0.13;;;;;;;20.33;62.16;98924.66;5052230;28;20078;-64
2023/10/29 04:16:06;;;;;;;0.10;0.10;;;;;;;19.52;65.53;98948.84;5051822;28;20076;-65
2023/10/29 04:18:31;;;;;;;0.10;0.10;;;;;;;20.66;62.02;98925.44;5051948;28;20095;-65
2023/10/29 04:20:58;;;;;;;0.17;0.17;;;;;;;20.43;62.33;98932.41;5051709;28;20497;-64
2023/10/29 04:23:23;;;;;;;0.10;0.10;;;;;;;20.37;62.89;98931.03;5056194;28;20094;-63
2023/10/29 04:25:49;;;;;;;0.15;0.15;;;;;;;19.64;63.90;98938.81;5072440;28;20028;-63
2023/10/29 04:28:14;;;;;;;0.13;0.13;;;;;;;19.77;64.40;98939.69;5071932;28;20056;-64
2023/10/29 04:30:39;;;;;;;0.10;0.10;;;;;;;20.13;62.92;98937.97;5071859;28;20047;-64
2023/10/29 04:33:05;;;;;;;0.10;0.10;;;;;;;20.76;60.53;98941.38;5070997;28;20040;-64
2023/10/29 04:35:30;;;;;;;0.10;0.10;;;;;;;20.41;62.56;98956.50;5071589;28;20055;-64
2023/10/29 04:37:56;;;;;;;0.20;0.20;;;;;;;20.43;61.74;98955.06;5071704;28;20032;-64
2023/10/29 04:40:21;;;;;;;0.20;0.20;;;;;;;19.99;62.99;98956.50;5072100;28;20035;-65
2023/10/29 04:42:46;;;;;;;0.10;0.10;;;;;;;20.44;62.13;98953.13;5071766;28;20037;-65
2023/10/29 04:45:12;;;;;;;0.22;0.22;;;;;;;20.57;61.40;98957.47;5071513;28;20033;-64
2023/10/29 04:47:37;;;;;;;0.17;0.17;;;;;;;20.63;61.17;98961.59;5071489;28;20032;-64
2023/10/29 04:50:04;;;;;;;0.10;0.10;;;;;;;20.59;61.74;98958.75;5071528;28;20365;-64
2023/10/29 04:52:29;;;;;;;0.13;0.13;;;;;;;20.92;60.31;98955.97;5071870;28;20515;-63
2023/10/29 04:54:54;;;;;;;0.10;0.10;;;;;;;20.61;60.73;98961.13;5089138;28;20048;-63
2023/10/29 04:57:21;;;;;;;0.10;0.10;;;;;;;20.34;61.74;98943.44;5050141;28;20410;-64
2023/10/29 04:59:48;;;;;;;0.20;0.20;;;;;;;20.36;61.00;98946.63;5070424;28;20043;-64
2023/10/29 05:02:14;;;;;;;0.20;0.20;;;;;;;19.40;64.89;98956.94;5071539;28;20025;-66
2023/10/29 05:04:39;;;;;;;0.30;0.30;;;;;;;19.84;63.79;98957.13;5071807;28;20445;-64
2023/10/29 05:07:04;;;;;;;0.20;0.20;;;;;;;19.66;64.57;98960.28;5071269;28;20047;-64
2023/10/29 05:09:30;;;;;;;0.13;0.13;;;;;;;19.95;61.90;98957.53;5070925;28;20043;-63
2023/10/29 05:11:55;;;;;;;0.10;0.10;;;;;;;21.14;58.43;98947.41;5071155;28;20037;-65
2023/10/29 05:14:20;;;;;;;0.15;0.15;;;;;;;20.38;60.82;98940.81;5053293;28;20492;-63
2023/10/29 05:16:46;;;;;;;0.20;0.20;;;;;;;19.59;63.96;98947.19;5071195;28;20020;-65
2023/10/29 05:19:11;;;;;;;0.10;0.10;;;;;;;20.42;60.47;98944.47;5071085;28;20078;-64
2023/10/29 05:21:37;;;;;;;0.20;0.20;;;;;;;20.36;60.79;98941.16;5070781;28;20044;-64
2023/10/29 05:24:02;;;;;;;0.15;0.15;;;;;;;20.54;60.41;98947.25;5070589;28;20081;-64
2023/10/29 05:26:28;;;;;;;0.20;0.20;;;;;;;20.42;60.46;98947.97;5052892;28;20028;-64
2023/10/29 05:28:53;;;;;;;0.20;0.20;;;;;;;20.83;59.32;98939.69;5071001;28;20036;-65
2023/10/29 05:31:18;;;;;;;0.20;0.20;;;;;;;20.60;59.58;98940.44;5070954;28;20032;-64
2023/10/29 05:33:44;;;;;;;0.20;0.20;;;;;;;20.54;59.48;98937.13;5070732;28;20504;-64
2023/10/29 05:36:10;;;;;;;0.17;0.17;;;;;;;20.84;58.68;98948.69;5070572;28;20098;-65
2023/10/29 05:38:35;;;;;;;0.10;0.10;;;;;;;20.35;59.62;98966.03;5070453;28;20064;-64
2023/10/29 05:41:01;;;;;;;0.15;0.15;;;;;;;21.00;57.94;98946.88;5070520;28;20415;-64
2023/10/29 05:43:26;;;;;;;0.20;0.20;;;;;;;20.42;59.33;98955.41;5071009;28;20032;-65
2023/10/29 05:45:51;;;;;;;0.30;0.30;;;;;;;20.88;58.63;98952.31;5070475;28;20496;-65
2023/10/29 05:48:17;;;;;;;0.20;0.20;;;;;;;19.90;60.92;98949.53;5070303;28;20036;-64
2023/10/29 05:50:42;;;;;;;0.20;0.20;;;;;;;19.75;61.91;98953.63;5084863;28;20537;-64
2023/10/29 05:53:08;;;;;;;0.20;0.20;;;;;;;20.29;60.71;98948.28;5073968;28;20029;-64
2023/10/29 05:55:33;;;;;;;0.10;0.10;;;;;;;20.14;60.15;98942.28;5070427;28;20029;-64
2023/10/29 05:57:59;;;;;;;0.10;0.10;;;;;;;19.56;62.31;98953.28;5070120;28;20033;-63
2023/10/29 06:00:24;;;;;;;0.10;0.10;;;;;;;20.54;58.82;98944.53;5070277;28;20043;-63
2023/10/29 06:02:49;;;;;;;0.20;0.20;;;;;;;20.56;58.91;98950.44;5070176;28;20524;-64
2023/10/29 06:05:15;;;;;;;0.15;0.15;;;;;;;19.64;62.11;98957.09;5070288;28;20115;-65
2023/10/29 06:07:44;;;;;;;0.20;0.20;;;;;;;19.47;62.67;98958.00;5070749;28;20024;-66
2023/10/29 06:10:13;;;;;;;0.10;0.10;;;;;;;19.67;61.59;98970.88;5070062;28;20116;-64
2023/10/29 06:12:39;;;;;;;0.10;0.10;;;;;;;19.33;61.72;98968.31;5070299;28;20028;-65
2023/10/29 06:15:07;;;;;;;0.20;0.20;;;;;;;19.23;61.78;98971.38;5070119;28;20032;-65
2023/10/29 06:17:33;;;;;;;0.13;0.13;;;;;;;19.30;61.88;98980.63;5051879;28;20044;-64
2023/10/29 06:19:59;;;;;;;0.20;0.20;;;;;;;19.04;62.08;98974.50;5069714;28;20143;-64
2023/10/29 06:22:24;;;;;;;0.20;0.20;;;;;;;19.17;61.59;98980.84;5070499;28;20047;-63
2023/10/29 06:24:50;;;;;;;0.10;0.10;;;;;;;19.09;61.24;98989.84;5069985;28;20045;-64
2023/10/29 06:27:15;;;;;;;0.20;0.20;;;;;;;19.09;61.45;98982.50;5069740;28;20040;-63
2023/10/29 06:29:41;;;;;;;0.20;0.20;;;;;;;19.07;61.10;99017.41;5070034;28;20036;-64
2023/10/29 06:32:06;;;;;;;0.20;0.20;;;;;;;19.14;60.95;99023.16;5069856;28;20028;-65
2023/10/29 06:34:32;;;;;;;0.20;0.20;;;;;;;18.99;61.45;99050.91;5070167;28;20028;-63
2023/10/29 06:36:57;;;;;;;0.20;0.20;;;;;;;20.36;57.57;99035.84;5069676;28;20476;-64
2023/10/29 06:39:22;;;;;;;0.25;0.25;;;;;;;19.45;60.36;99025.63;5069582;28;20032;-63
2023/10/29 06:41:48;;;;;;;0.15;0.15;;;;;;;19.76;59.06;99034.28;5069474;28;20039;-63
2023/10/29 06:44:13;;;;;;;0.10;0.10;;;;;;;19.78;59.34;99031.22;5069813;28;20109;-65
2023/10/29 06:46:38;;;;;;;0.20;0.20;;;;;;;19.33;59.97;99044.59;5069854;28;20452;-63
2023/10/29 06:49:04;;;;;;;0.20;0.20;;;;;;;19.28;60.60;99045.53;5069494;28;20040;-65
2023/10/29 06:51:29;;;;;;;0.10;0.10;;;;;;;19.17;60.48;99049.75;5069452;28;20037;-65
2023/10/29 06:53:54;;;;;;;0.20;0.20;;;;;;;19.50;58.96;99046.47;5069181;28;20052;-65
2023/10/29 06:56:20;;;;;;;0.10;0.10;;;;;;;18.74;61.43;99056.38;5069654;28;20492;-63
2023/10/29 06:58:45;;;;;;;0.20;0.20;;;;;;;18.76;61.19;99037.81;5073664;28;20023;-62
2023/10/29 07:01:11;;;;;;;0.13;0.13;;;;;;;19.60;58.98;99051.53;5073569;28;20028;-63
2023/10/29 07:03:42;;;;;;;0.10;0.10;;;;;;;18.93;60.09;99068.53;5071460;28;20041;-63
2023/10/29 07:06:14;;;;;;;0.20;0.20;;;;;;;18.73;60.88;99052.09;5073105;28;20028;-64
2023/10/29 07:08:39;;;;;;;0.10;0.10;;;;;;;18.40;61.92;99066.13;5073428;28;20045;-63
2023/10/29 07:11:05;;;;;;;0.10;0.10;;;;;;;18.94;60.21;99061.97;5073106;28;20142;-64
2023/10/29 07:13:31;;;;;;;0.10;0.10;;;;;;;18.82;60.68;99061.03;5073810;28;20020;-63
2023/10/29 07:15:59;;;;;;;0.30;0.30;;;;;;;18.19;62.30;99067.88;5073220;28;20161;-64
2023/10/29 07:18:25;;;;;;;0.20;0.20;;;;;;;18.85;59.28;99071.28;5072943;28;20048;-63
2023/10/29 07:20:52;;;;;;;0.20;0.20;;;;;;;18.74;60.86;99078.97;5072981;28;20044;-64
2023/10/29 07:23:18;;;;;;;0.20;0.20;;;;;;;18.90;60.15;99084.72;5072631;28;20040;-64
2023/10/29 07:25:43;;;;;;;0.20;0.20;;;;;;;18.36;61.45;99088.84;5072970;28;20027;-64
2023/10/29 07:28:09;;;;;;;0.20;0.20;;;;;;;18.74;60.84;99086.31;5072521;28;20028;-64
2023/10/29 07:30:34;;;;;;;0.13;0.13;;;;;;;18.73;61.72;99087.47;5072703;28;20036;-66
2023/10/29 07:32:59;;;;;;;0.20;0.20;;;;;;;18.58;61.31;99104.25;5072729;28;20029;-65
2023/10/29 07:35:25;;;;;;;0.20;0.20;;;;;;;18.40;62.21;99095.25;5072434;28;20036;-64
2023/10/29 07:37:50;;;;;;;0.20;0.20;;;;;;;18.60;61.44;99107.44;5073091;28;20020;-64
2023/10/29 07:40:16;;;;;;;0.10;0.10;;;;;;;18.46;62.22;99117.69;5072390;28;20037;-66
2023/10/29 07:42:41;;;;;;;0.20;0.20;;;;;;;18.65;61.55;99127.16;5074581;28;20219;-67
2023/10/29 07:45:07;;;;;;;0.20;0.20;;;;;;;18.39;62.69;99137.97;5072039;28;20135;-64
2023/10/29 07:47:32;;;;;;;0.10;0.10;;;;;;;18.64;61.19;99147.31;5069576;28;20040;-64
2023/10/29 07:49:58;;;;;;;0.20;0.20;;;;;;;18.65;61.58;99159.81;5072296;28;20029;-64
2023/10/29 07:52:23;;;;;;;0.10;0.10;;;;;;;19.04;60.06;99167.00;5072518;28;20031;-64
2023/10/29 07:54:49;;;;;;;0.20;0.20;;;;;;;19.40;58.96;99161.25;5071877;28;20067;-63
2023/10/29 07:57:14;;;;;;;0.20;0.20;;;;;;;18.86;60.71;99160.78;5072148;28;20037;-61
2023/10/29 07:59:39;;;;;;;0.20;0.20;;;;;;;18.88;59.88;99165.91;5071745;28;20115;-64
2023/10/29 08:02:05;;;;;;;0.20;0.20;;;;;;;18.56;61.33;99155.44;5072102;28;20051;-66
2023/10/29 08:04:30;;;;;;;0.20;0.20;;;;;;;18.62;61.87;99168.59;5071949;28;20392;-64
2023/10/29 08:06:56;;;;;;;0.10;0.10;;;;;;;19.21;59.82;99147.94;5070285;28;20032;-63
2023/10/29 08:09:22;;;;;;;0.10;0.10;;;;;;;19.20;58.90;99185.25;5071503;28;20036;-65
2023/10/29 08:11:48;;;;;;;0.30;0.30;;;;;;;18.98;59.82;99174.56;5071371;28;20044;-59
2023/10/29 08:14:13;;;;;;;0.20;0.20;;;;;;;17.92;63.23;99190.47;5071053;28;20055;-60
2023/10/29 08:16:39;;;;;;;0.20;0.20;;;;;;;18.79;60.80;99178.72;5071918;28;20372;-58
2023/10/29 08:19:05;;;;;;;0.10;0.10;;;;;;;19.19;59.20;99182.84;5071869;28;20040;-64
2023/10/29 08:21:31;;;;;;;0.20;0.20;;;;;;;18.81;60.18;99190.84;5071887;28;20090;-64
2023/10/29 08:23:56;;;;;;;0.20;0.20;;;;;;;19.14;59.00;99196.66;5071734;28;20044;-64
2023/10/29 08:26:24;;;;;;;0.20;0.20;;;;;;;19.36;58.69;99188.31;5071829;28;20465;-64
2023/10/29 08:28:49;;;;;;;0.20;0.20;;;;;;;19.25;59.53;99190.53;5072029;28;20056;-65
2023/10/29 08:31:15;;;;;;;0.20;0.20;;;;;;;18.95;60.96;99187.97;5071649;28;20064;-65
2023/10/29 08:33:40;;;;;;;0.10;0.10;;;;;;;19.25;60.15;99219.69;5071576;28;20029;-65
2023/10/29 08:36:06;;;;;;;0.20;0.20;;;;;;;19.20;59.72;99239.72;5071412;28;20032;-65
2023/10/29 08:38:31;;;;;;;0.20;0.20;;;;;;;20.39;56.94;99226.97;5072730;28;20032;-65
2023/10/29 08:40:57;;;;;;;0.10;0.10;;;;;;;19.43;59.48;99226.78;5071338;28;20395;-65
2023/10/29 08:43:23;;;;;;;0.10;0.10;;;;;;;18.86;61.34;99219.84;5072121;28;20028;-66
2023/10/29 08:45:48;;;;;;;0.13;0.13;;;;;;;19.36;59.94;99229.16;5071191;28;20036;-64
2023/10/29 08:48:14;;;;;;;0.10;0.10;;;;;;;18.96;60.72;99219.53;5070950;28;20037;-66
2023/10/29 08:50:39;;;;;;;0.10;0.10;;;;;;;18.57;62.39;99236.78;5071172;28;20511;-65
2023/10/29 08:53:04;;;;;;;0.10;0.10;;;;;;;19.59;59.14;99252.41;5070518;28;20025;-66
2023/10/29 08:55:30;;;;;;;0.17;0.17;;;;;;;19.39;59.44;99238.63;5070821;28;20020;-65
2023/10/29 08:57:55;;;;;;;0.20;0.20;;;;;;;19.36;60.09;99253.69;5070926;28;20051;-64
2023/10/29 09:00:20;;;;;;;0.10;0.10;;;;;;;19.07;60.94;99253.50;5071209;28;20493;-65
2023/10/29 09:02:46;;;;;;;0.10;0.10;;;;;;;19.45;59.05;99257.22;5070821;28;20032;-65
2023/10/29 09:05:12;;;;;;;0.20;0.20;;;;;;;19.38;60.04;99256.88;5070925;28;20040;-64
2023/10/29 09:07:38;;;;;;;0.15;0.15;;;;;;;19.24;60.27;99254.28;5071494;28;20012;-64
2023/10/29 09:10:03;;;;;;;0.20;0.20;;;;;;;19.27;60.30;99253.66;5070483;28;20100;-64
2023/10/29 09:12:29;;;;;;;0.20;0.20;;;;;;;19.86;57.83;99248.50;5069717;28;20388;-65
2023/10/29 09:14:54;;;;;;;0.10;0.10;;;;;;;20.24;56.52;99256.75;5070189;28;20440;-64
2023/10/29 09:17:20;;;;;;;0.20;0.20;;;;;;;19.61;58.18;99249.34;5070043;28;20052;-63
2023/10/29 09:19:45;;;;;;;0.10;0.10;;;;;;;19.07;59.65;99276.09;5068874;28;20092;-64
2023/10/29 09:22:11;;;;;;;0.17;0.17;;;;;;;19.88;57.09;99271.59;5032140;28;20044;-65
2023/10/29 09:24:36;;;;;;;0.28;0.28;;;;;;;20.13;56.54;99289.00;5050856;28;20481;-66
2023/10/29 09:27:02;;;;;;;0.20;0.20;;;;;;;19.23;59.24;99311.81;5050767;28;20123;-64
2023/10/29 09:29:29;;;;;;;0.20;0.20;;;;;;;20.07;56.71;99296.56;5050646;28;20037;-66
2023/10/29 09:31:55;;;;;;;0.20;0.20;;;;;;;20.21;55.47;99304.56;5050656;28;20040;-64
2023/10/29 09:34:20;;;;;;;0.30;0.30;;;;;;;19.97;57.33;99309.72;5053444;28;20036;-65
2023/10/29 09:36:45;;;;;;;0.20;0.20;;;;;;;19.89;55.64;99310.56;5065346;28;20059;-65
2023/10/29 09:39:11;;;;;;;0.20;0.20;;;;;;;20.00;55.64;99311.81;5050363;28;20388;-64
2023/10/29 09:41:43;;;;;;;0.10;0.10;;;;;;;19.64;56.72;99330.44;5050231;28;20095;-64
2023/10/29 09:44:17;;;;;;;0.13;0.13;;;;;;;19.68;57.20;99325.97;5050453;28;20121;-64
2023/10/29 09:46:44;;;;;;;0.10;0.10;;;;;;;18.85;59.43;99349.69;5050837;28;20052;-64
2023/10/29 09:49:12;;;;;;;0.20;0.20;;;;;;;19.04;58.85;99331.19;5049983;28;20048;-63
2023/10/29 09:51:37;;;;;;;0.15;0.15;;;;;;;20.17;55.62;99328.94;5049955;28;20033;-65
2023/10/29 09:54:04;;;;;;;0.20;0.20;;;;;;;20.18;55.06;99321.56;5050296;28;20033;-65
2023/10/29 09:56:30;;;;;;;0.20;0.20;;;;;;;20.34;54.95;99327.31;5031999;28;20067;-65
2023/10/29 09:58:55;;;;;;;0.20;0.20;;;;;;;20.17;54.21;99326.22;5048695;28;20041;-64
2023/10/29 10:01:20;;;;;;;0.20;0.20;;;;;;;19.59;56.02;99336.88;5049507;28;20028;-65
2023/10/29 10:03:46;;;;;;;0.15;0.15;;;;;;;19.19;57.88;99365.31;5049094;28;20083;-64
2023/10/29 10:06:14;;;;;;;0.20;0.20;;;;;;;19.04;57.71;99352.97;5049210;28;20029;-65
2023/10/29 10:08:39;;;;;;;0.10;0.10;;;;;;;19.88;55.60;99352.56;5049056;28;20037;-65
2023/10/29 10:11:21;;;;;;;0.15;0.15;;;;;;;20.59;53.36;99345.53;5048763;28;20040;-63
2023/10/29 10:13:46;;;;;;;0.20;0.20;;;;;;;20.81;52.34;99361.66;5049652;28;20049;-65
2023/10/29 10:16:14;;;;;;;0.10;0.10;;;;;;;20.24;53.69;99355.75;5048765;28;20029;-65
2023/10/29 10:18:59;;;;;;;0.10;0.10;;;;;;;20.24;53.32;99344.03;5048763;28;20075;-63
2023/10/29 10:21:39;;;;;;;0.20;0.20;;;;;;;20.74;52.44;99353.16;5063937;28;20056;-65
2023/10/29 10:24:06;;;;;;;0.10;0.10;;;;;;;20.47;52.25;99354.41;5069248;28;20037;-63
2023/10/29 10:26:36;;;;;;;0.20;0.20;;;;;;;20.37;52.86;99362.13;5068846;28;20038;-64
2023/10/29 10:29:04;;;;;;;0.15;0.15;;;;;;;20.26;52.83;99353.50;5069201;28;20028;-65
2023/10/29 10:31:35;;;;;;;0.20;0.20;;;;;;;20.15;52.59;99355.75;5068318;28;20028;-65
2023/10/29 10:34:17;;;;;;;0.10;0.10;;;;;;;20.00;52.44;99360.91;5068593;28;20052;-64
2023/10/29 10:36:45;;;;;;;0.10;0.10;;;;;;;20.72;50.43;99356.22;5068767;28;20504;-65
2023/10/29 10:39:11;;;;;;;0.10;0.10;;;;;;;20.89;50.91;99358.88;5068653;28;20036;-65
2023/10/29 10:41:42;;;;;;;0.20;0.20;;;;;;;20.42;51.00;99345.59;5068499;28;20063;-65
2023/10/29 10:44:10;;;;;;;0.10;0.10;;;;;;;20.34;51.94;99362.78;5068569;28;20024;-64
2023/10/29 10:46:37;;;;;;;0.10;0.10;;;;;;;20.34;51.12;99338.25;5069005;28;20097;-64
2023/10/29 10:49:06;;;;;;;0.15;0.15;;;;;;;21.34;48.15;99340.00;5068614;28;20056;-64
2023/10/29 10:51:34;;;;;;;0.10;0.10;;;;;;;20.50;49.44;99352.97;5068717;28;20039;-64
2023/10/29 10:54:02;;;;;;;0.20;0.20;;;;;;;20.28;50.81;99343.06;5068453;28;20033;-65
2023/10/29 10:56:30;;;;;;;0.10;0.10;;;;;;;20.44;50.42;99357.00;5068351;28;20044;-64
2023/10/29 10:58:58;;;;;;;0.10;0.10;;;;;;;20.57;49.19;99373.16;5068088;28;20056;-64
2023/10/29 11:01:24;;;;;;;0.10;0.10;;;;;;;20.70;49.32;99369.41;5069160;28;20049;-64
2023/10/29 11:03:51;;;;;;;0.10;0.10;;;;;;;20.96;48.83;99366.56;5068449;28;20040;-64
2023/10/29 11:06:16;;;;;;;0.20;0.20;;;;;;;20.15;49.91;99366.66;5068825;28;20024;-64
2023/10/29 11:08:42;;;;;;;0.10;0.10;;;;;;;21.39;47.58;99369.06;5069200;28;20036;-64
2023/10/29 11:11:08;;;;;;;0.10;0.10;;;;;;;21.84;46.43;99372.75;5069428;28;20036;-65
2023/10/29 11:13:33;;;;;;;0.15;0.15;;;;;;;21.96;46.21;99353.66;5069681;28;20115;-65
2023/10/29 11:16:01;;;;;;;0.10;0.10;;;;;;;21.60;46.33;99373.41;5069187;28;20511;-63
2023/10/29 11:18:28;;;;;;;0.20;0.20;;;;;;;21.03;48.16;99383.25;5069173;28;20037;-63
2023/10/29 11:20:55;;;;;;;0.20;0.20;;;;;;;21.62;47.48;99392.22;5069229;28;20036;-63
2023/10/29 11:23:23;;;;;;;0.10;0.10;;;;;;;21.29;46.64;99380.38;5069381;28;20484;-64
2023/10/29 11:25:49;;;;;;;0.10;0.10;;;;;;;20.98;47.40;99377.97;5069656;28;20558;-64
2023/10/29 11:28:24;;;;;;;0.10;0.10;;;;;;;20.05;48.43;99380.63;5069196;28;20139;-62